Temperatura - Umidità - Pioggia orarie del 21-05-2022

Intensità - Direzione vento orarie del 21-05-2022

Dati orari da stazione meteo del 21-05-2022

Nome Stazione Data Ora Temperatura [°C] Umidità [%] Pioggia [mm] Intensità vento[km/h] Direzione vento [°]
Savigliano 20-05-2022 02:00 19.6 75.1 0 0 219
Savigliano 20-05-2022 03:00 18.4 76.2 0 0.4 206
Savigliano 20-05-2022 04:00 17.4 80.4 0 0 180
Savigliano 20-05-2022 05:00 17.1 84.7 0 0 166
Savigliano 20-05-2022 06:00 15.4 87.4 0 0 158
Savigliano 20-05-2022 07:00 15.4 87.3 0 0 160
Savigliano 20-05-2022 08:00 17.9 79.8 0 0.7 159
Savigliano 20-05-2022 09:00 21.2 70.8 0 0 167
Savigliano 20-05-2022 10:00 22.7 65 0 0.4 99
Savigliano 20-05-2022 11:00 24.6 60.7 0 0.7 63
Savigliano 20-05-2022 12:00 25.9 53.6 0 0.7 145
Savigliano 20-05-2022 13:00 26.3 53.8 0 1.4 111
Savigliano 20-05-2022 14:00 27.5 47.4 0 2.5 121
Savigliano 20-05-2022 15:00 27.6 50.9 0 1.4 108
Savigliano 20-05-2022 16:00 27.6 49.5 0 2.2 114
Savigliano 20-05-2022 17:00 27.6 48.4 0 2.2 86
Savigliano 20-05-2022 18:00 26.7 53.4 0 6.5 82
Savigliano 20-05-2022 19:00 24.9 55.5 0 6.8 85
Savigliano 20-05-2022 20:00 24.1 63.2 0 6.1 87
Savigliano 20-05-2022 21:00 22.2 71 0 3.6 119
Savigliano 20-05-2022 22:00 19.8 75.1 0 2.5 155
Savigliano 20-05-2022 23:00 19.6 80.6 0 4.3 166
Savigliano 21-05-2022 00:00 17.7 81.4 0 2.2 155
Savigliano 21-05-2022 01:00 17.2 82 0 4.3 166
Savigliano 21-05-2022 02:00 17.2 85.4 0 2.2 165
Savigliano 21-05-2022 03:00 17.7 88.2 0 4 170
Savigliano 21-05-2022 04:00 17.6 88.6 0 1.4 164
Savigliano 21-05-2022 05:00 17.3 86.7 0 2.2 168
Savigliano 21-05-2022 06:00 16.8 86.9 0 5 170
Savigliano 21-05-2022 07:00 16.7 87.5 0 3.2 154
Savigliano 21-05-2022 08:00 17.9 85.5 0 2.5 145
Savigliano 21-05-2022 09:00 20.6 77.4 0 3.2 156
Savigliano 21-05-2022 10:00 22.4 70.1 0 2.9 104
Savigliano 21-05-2022 11:00 23.6 65.8 0 2.2 98
Savigliano 21-05-2022 12:00 25 61.7 0 2.9 91
Savigliano 21-05-2022 13:00 25.5 61.1 0 2.9 74
Savigliano 21-05-2022 14:00 27.4 55.5 0 1.8 106
Savigliano 21-05-2022 15:00 27.6 53.6 0 2.2 120
Savigliano 21-05-2022 16:00 28.6 53.9 0 2.2 117
Savigliano 21-05-2022 17:00 29.6 47.5 0 2.5 145
Savigliano 21-05-2022 18:00 30 46.2 0 1.1 129
Savigliano 21-05-2022 19:00 29.1 51.5 0 2.2 106
Savigliano 21-05-2022 20:00 26.3 57.8 0 8.6 110
Savigliano 21-05-2022 21:00 22.9 66.1 0 5.8 129
Savigliano 21-05-2022 22:00 21 73.2 0 8.6 163
Savigliano 21-05-2022 23:00 19.9 76.5 0 5.8 159
Savigliano 20-05-2022 08:40 0 0 0 0 177
Savigliano 21-05-2022 00:20 0 0 0 0 119
Savigliano 21-05-2022 08:40 0 0 0 0 162

Riassuntivo giornaliero del 21-05-2022